LIMELIRP

Guest
Details From LIME - Bergamo Orio Al Serio
To LIRP - PISA
Flight Number -
Tags generated
Created
Modified
Stats Distance 123 nm / 228 km
Max Altitude 9,500 ft / 2,896 m
Waypoints 3
Social Downloads 1
Likes 0
Share VATSIM

Download

Looking for another format? Having issues loading an existing format? Contact us
Advertisement - Login to hide

Notes

Basic altitude profile: - Ascent Rate: 2500ft/min - Ascent Speed: 250kts - Cruise Altitude: 35000ft - Cruise Speed: 420kts - Descent Rate: 1500ft/min - Descent Speed: 250kts Options: - Use NATs: no - Use PACOTS: no - Use low airways: yes - Use high airways: yes

Route

LIME KARPI LIRP

ID Type Via Altitude Latitude Longitude Leg Dist Tot Dist Heading (true) Name
O LIME APT - 0 ft / 0 m 45.67200˚ 9.70689˚ - 0 nm - Bergamo Orio Al Serio
KARPI FIX - 9,500 ft / 2,896 m 44.48417˚ 10.16250˚ 73 nm 73 nm 165° / 165° -
O LIRP APT - 0 ft / 0 m 43.68388˚ 10.39272˚ 49 nm 122 nm 168° / 168° PISA

Altitude Profile

Advertisement - Login to hide

LIME

Details ICAO LIME (BGY)
Name Bergamo Orio Al Serio
Region Italy
Timezone Europe/Rome (UTC+1.0)
Stats Elevation 779 ft / 237 m (AMSL)
Location 45.672004° 9.706892°
Runways 2
Magnetic Variation 2.604° E

METAR

LIME 180120Z VRB05KT CAVOK M00/M10 Q1023 NOSIG

Decode

TAF

TAF LIME 172300Z 1800/1824 VRB05KT CAVOK

Decode

Departure Runways

ID Width Length Bearing (true) Bearing (mag) Surface Threshold Offset Overrun Length
10 148 ft / 45 m 9,897 ft / 3,017 m 104.89° 102.29° Asphalt 312 ft / 95 m 0 ft / 0 m
12 59 ft / 18 m 2,665 ft / 812 m 121.47° 118.87° Asphalt 197 ft / 60 m 0 ft / 0 m
28 148 ft / 45 m 9,897 ft / 3,017 m 284.91° 282.31° Asphalt 712 ft / 217 m 0 ft / 0 m
30 59 ft / 18 m 2,665 ft / 812 m 301.48° 298.88° Asphalt 312 ft / 95 m 0 ft / 0 m

LIRP

Details ICAO LIRP (PSA)
Name PISA
Region Italy
Timezone Europe/Rome (UTC+1.0)
Stats Elevation 6 ft / 2 m (AMSL)
Location 43.683883° 10.392724°
Runways 2
Magnetic Variation 2.705° E

METAR

LIRP 180115Z 12004KT CAVOK M00/M01 Q1024 NOSIG

Decode

TAF

TAF LIRP 172300Z 1800/1824 05007KT 9999 FEW050 PROB30 TEMPO 1803/1807 4000 MIFG BKN010 TEMPO 1809/1824 11015G25KT

Decode

Destination Runways

ID Width Length Bearing (true) Bearing (mag) Surface Threshold Offset Overrun Length
04L 141 ft / 43 m 9,158 ft / 2,791 m 36.70° 34.00° Asphalt 979 ft / 298 m 0 ft / 0 m
04R 148 ft / 45 m 9,819 ft / 2,993 m 36.72° 34.02° Asphalt 490 ft / 149 m 0 ft / 0 m
22L 148 ft / 45 m 9,819 ft / 2,993 m 216.73° 214.03° Asphalt 843 ft / 257 m 0 ft / 0 m
22R 141 ft / 43 m 9,158 ft / 2,791 m 216.72° 214.02° Asphalt 0 ft / 0 m 0 ft / 0 m

Approach Navaids

Runway Type Ident Frequency Range Bearing (true) Bearing (mag) Slope Elevation
04R Localiser IPI 109.70 MHz 18 nm / 33 km 36.76° 34.06° - 7 ft / 2 m (AMSL)
04R Glidescope IPI 109.70 MHz 10 nm / 19 km 36.72° 34.02° 3.00° 3 ft / 1 m (AMSL)

Popular Alternatives